sensor_id;sensor_type;location;lat;lon;timestamp;P1;durP1;ratioP1;P2;durP2;ratioP2
22268;SDS011;11303;50.772;19.670;2023-05-10T00:00:21;10.65;;;5.90;;
22268;SDS011;11303;50.772;19.670;2023-05-10T00:02:24;12.25;;;7.28;;
22268;SDS011;11303;50.772;19.670;2023-05-10T00:04:26;9.98;;;5.38;;
22268;SDS011;11303;50.772;19.670;2023-05-10T00:06:28;15.18;;;6.88;;
22268;SDS011;11303;50.772;19.670;2023-05-10T00:08:30;16.38;;;5.85;;
22268;SDS011;11303;50.772;19.670;2023-05-10T00:10:31;22.52;;;7.70;;
22268;SDS011;11303;50.772;19.670;2023-05-10T00:12:32;17.25;;;6.78;;
22268;SDS011;11303;50.772;19.670;2023-05-10T00:14:34;15.13;;;5.93;;
22268;SDS011;11303;50.772;19.670;2023-05-10T00:16:35;12.38;;;5.97;;
22268;SDS011;11303;50.772;19.670;2023-05-10T00:18:37;13.70;;;5.53;;
22268;SDS011;11303;50.772;19.670;2023-05-10T00:20:38;9.88;;;4.93;;
22268;SDS011;11303;50.772;19.670;2023-05-10T00:22:40;11.75;;;5.38;;
22268;SDS011;11303;50.772;19.670;2023-05-10T00:24:41;12.88;;;5.70;;
22268;SDS011;11303;50.772;19.670;2023-05-10T00:26:42;8.00;;;4.55;;
22268;SDS011;11303;50.772;19.670;2023-05-10T00:28:44;7.38;;;4.40;;
22268;SDS011;11303;50.772;19.670;2023-05-10T00:30:45;15.15;;;5.00;;
22268;SDS011;11303;50.772;19.670;2023-05-10T00:32:47;9.38;;;4.72;;
22268;SDS011;11303;50.772;19.670;2023-05-10T00:34:51;16.42;;;6.25;;
22268;SDS011;11303;50.772;19.670;2023-05-10T00:36:52;16.80;;;6.18;;
22268;SDS011;11303;50.772;19.670;2023-05-10T00:38:54;23.65;;;8.52;;
22268;SDS011;11303;50.772;19.670;2023-05-10T00:40:55;18.38;;;8.57;;
22268;SDS011;11303;50.772;19.670;2023-05-10T00:42:57;20.35;;;9.18;;
22268;SDS011;11303;50.772;19.670;2023-05-10T00:44:59;22.63;;;9.80;;
22268;SDS011;11303;50.772;19.670;2023-05-10T00:47:00;14.63;;;6.32;;
22268;SDS011;11303;50.772;19.670;2023-05-10T00:49:02;13.13;;;5.25;;
22268;SDS011;11303;50.772;19.670;2023-05-10T00:51:03;10.70;;;5.40;;
22268;SDS011;11303;50.772;19.670;2023-05-10T00:53:05;12.13;;;5.35;;
22268;SDS011;11303;50.772;19.670;2023-05-10T00:55:07;14.80;;;6.25;;
22268;SDS011;11303;50.772;19.670;2023-05-10T00:57:08;10.88;;;5.28;;
22268;SDS011;11303;50.772;19.670;2023-05-10T00:59:10;14.48;;;5.63;;
22268;SDS011;11303;50.772;19.670;2023-05-10T01:01:12;20.45;;;6.15;;
22268;SDS011;11303;50.772;19.670;2023-05-10T01:03:13;35.92;;;13.55;;
22268;SDS011;11303;50.772;19.670;2023-05-10T01:05:15;74.43;;;23.27;;
22268;SDS011;11303;50.772;19.670;2023-05-10T01:07:17;79.28;;;25.35;;
22268;SDS011;11303;50.772;19.670;2023-05-10T01:09:19;89.28;;;30.10;;
22268;SDS011;11303;50.772;19.670;2023-05-10T01:11:20;127.85;;;37.80;;
22268;SDS011;11303;50.772;19.670;2023-05-10T01:15:53;28.35;;;11.95;;
22268;SDS011;11303;50.772;19.670;2023-05-10T01:17:55;48.08;;;16.73;;
22268;SDS011;11303;50.772;19.670;2023-05-10T01:19:57;21.65;;;8.70;;
22268;SDS011;11303;50.772;19.670;2023-05-10T01:22:04;23.98;;;8.80;;
22268;SDS011;11303;50.772;19.670;2023-05-10T01:24:13;18.27;;;8.10;;
22268;SDS011;11303;50.772;19.670;2023-05-10T01:28:57;14.05;;;5.05;;
22268;SDS011;11303;50.772;19.670;2023-05-10T01:31:03;12.85;;;5.07;;
22268;SDS011;11303;50.772;19.670;2023-05-10T01:33:09;15.35;;;5.57;;
22268;SDS011;11303;50.772;19.670;2023-05-10T01:35:15;13.65;;;5.55;;
22268;SDS011;11303;50.772;19.670;2023-05-10T01:37:20;26.63;;;9.63;;
22268;SDS011;11303;50.772;19.670;2023-05-10T01:41:38;20.05;;;8.07;;
22268;SDS011;11303;50.772;19.670;2023-05-10T01:43:44;16.90;;;7.70;;
22268;SDS011;11303;50.772;19.670;2023-05-10T01:45:51;16.40;;;6.63;;
22268;SDS011;11303;50.772;19.670;2023-05-10T01:48:06;17.48;;;9.25;;
22268;SDS011;11303;50.772;19.670;2023-05-10T01:50:19;17.05;;;6.90;;
22268;SDS011;11303;50.772;19.670;2023-05-10T01:52:26;11.32;;;6.50;;
22268;SDS011;11303;50.772;19.670;2023-05-10T01:54:29;8.30;;;5.63;;
22268;SDS011;11303;50.772;19.670;2023-05-10T01:56:31;13.70;;;6.30;;
22268;SDS011;11303;50.772;19.670;2023-05-10T01:58:34;12.75;;;5.13;;
22268;SDS011;11303;50.772;19.670;2023-05-10T02:00:39;13.05;;;5.93;;
22268;SDS011;11303;50.772;19.670;2023-05-10T02:02:42;14.73;;;5.85;;
22268;SDS011;11303;50.772;19.670;2023-05-10T02:04:45;20.88;;;7.50;;
22268;SDS011;11303;50.772;19.670;2023-05-10T02:06:47;19.05;;;8.23;;
22268;SDS011;11303;50.772;19.670;2023-05-10T02:08:49;13.13;;;5.93;;
22268;SDS011;11303;50.772;19.670;2023-05-10T02:10:52;11.38;;;6.22;;
22268;SDS011;11303;50.772;19.670;2023-05-10T02:12:54;11.90;;;6.68;;
22268;SDS011;11303;50.772;19.670;2023-05-10T02:14:57;16.85;;;8.38;;
22268;SDS011;11303;50.772;19.670;2023-05-10T02:17:00;18.40;;;8.55;;
22268;SDS011;11303;50.772;19.670;2023-05-10T02:19:03;16.45;;;7.13;;
22268;SDS011;11303;50.772;19.670;2023-05-10T02:21:05;18.05;;;9.52;;
22268;SDS011;11303;50.772;19.670;2023-05-10T02:23:07;12.93;;;7.60;;
22268;SDS011;11303;50.772;19.670;2023-05-10T02:25:09;19.60;;;8.48;;
22268;SDS011;11303;50.772;19.670;2023-05-10T02:27:11;19.20;;;8.48;;
22268;SDS011;11303;50.772;19.670;2023-05-10T02:29:13;13.50;;;7.28;;
22268;SDS011;11303;50.772;19.670;2023-05-10T02:31:15;22.00;;;9.52;;
22268;SDS011;11303;50.772;19.670;2023-05-10T02:33:18;27.85;;;12.90;;
22268;SDS011;11303;50.772;19.670;2023-05-10T02:35:20;28.90;;;13.45;;
22268;SDS011;11303;50.772;19.670;2023-05-10T02:37:22;26.95;;;13.40;;
22268;SDS011;11303;50.772;19.670;2023-05-10T02:39:25;22.25;;;10.60;;
22268;SDS011;11303;50.772;19.670;2023-05-10T02:41:30;24.17;;;12.45;;
22268;SDS011;11303;50.772;19.670;2023-05-10T02:43:33;22.63;;;10.18;;
22268;SDS011;11303;50.772;19.670;2023-05-10T02:45:34;25.83;;;11.30;;
22268;SDS011;11303;50.772;19.670;2023-05-10T02:47:36;35.00;;;14.90;;
22268;SDS011;11303;50.772;19.670;2023-05-10T02:49:38;31.02;;;13.07;;
22268;SDS011;11303;50.772;19.670;2023-05-10T02:51:41;28.52;;;11.65;;
22268;SDS011;11303;50.772;19.670;2023-05-10T02:53:43;22.27;;;8.85;;
22268;SDS011;11303;50.772;19.670;2023-05-10T02:55:45;20.75;;;8.63;;
22268;SDS011;11303;50.772;19.670;2023-05-10T02:57:54;23.63;;;11.48;;
22268;SDS011;11303;50.772;19.670;2023-05-10T02:59:58;18.55;;;9.50;;
22268;SDS011;11303;50.772;19.670;2023-05-10T03:01:59;16.65;;;9.23;;
22268;SDS011;11303;50.772;19.670;2023-05-10T03:04:01;15.80;;;7.80;;
22268;SDS011;11303;50.772;19.670;2023-05-10T03:06:03;17.13;;;8.95;;
22268;SDS011;11303;50.772;19.670;2023-05-10T03:08:04;18.63;;;7.90;;
22268;SDS011;11303;50.772;19.670;2023-05-10T03:10:07;15.88;;;8.50;;
22268;SDS011;11303;50.772;19.670;2023-05-10T03:16:41;17.48;;;8.20;;
22268;SDS011;11303;50.772;19.670;2023-05-10T03:18:50;18.70;;;8.18;;
22268;SDS011;11303;50.772;19.670;2023-05-10T03:21:01;22.95;;;9.90;;
22268;SDS011;11303;50.772;19.670;2023-05-10T03:23:05;26.05;;;11.10;;
22268;SDS011;11303;50.772;19.670;2023-05-10T03:25:08;27.67;;;9.75;;
22268;SDS011;11303;50.772;19.670;2023-05-10T03:27:11;21.08;;;9.88;;
22268;SDS011;11303;50.772;19.670;2023-05-10T03:29:14;14.48;;;7.40;;
22268;SDS011;11303;50.772;19.670;2023-05-10T03:31:16;11.27;;;6.18;;
22268;SDS011;11303;50.772;19.670;2023-05-10T03:33:18;18.88;;;9.77;;
22268;SDS011;11303;50.772;19.670;2023-05-10T03:35:20;12.70;;;8.00;;
22268;SDS011;11303;50.772;19.670;2023-05-10T03:37:21;18.45;;;8.75;;
22268;SDS011;11303;50.772;19.670;2023-05-10T03:39:22;13.02;;;6.20;;
22268;SDS011;11303;50.772;19.670;2023-05-10T03:41:24;11.85;;;5.63;;
22268;SDS011;11303;50.772;19.670;2023-05-10T03:43:26;12.27;;;7.38;;
22268;SDS011;11303;50.772;19.670;2023-05-10T03:45:27;11.50;;;6.60;;
22268;SDS011;11303;50.772;19.670;2023-05-10T03:47:29;11.75;;;6.63;;
22268;SDS011;11303;50.772;19.670;2023-05-10T03:49:31;13.70;;;8.20;;
22268;SDS011;11303;50.772;19.670;2023-05-10T03:51:32;16.25;;;9.00;;
22268;SDS011;11303;50.772;19.670;2023-05-10T03:53:33;14.63;;;7.75;;
22268;SDS011;11303;50.772;19.670;2023-05-10T03:55:35;19.05;;;6.80;;
22268;SDS011;11303;50.772;19.670;2023-05-10T03:57:37;13.43;;;6.03;;
22268;SDS011;11303;50.772;19.670;2023-05-10T03:59:39;10.85;;;6.32;;
22268;SDS011;11303;50.772;19.670;2023-05-10T04:01:40;9.75;;;5.22;;
22268;SDS011;11303;50.772;19.670;2023-05-10T04:03:42;10.05;;;5.38;;
22268;SDS011;11303;50.772;19.670;2023-05-10T04:05:43;9.90;;;5.50;;
22268;SDS011;11303;50.772;19.670;2023-05-10T04:07:45;15.38;;;5.38;;
22268;SDS011;11303;50.772;19.670;2023-05-10T04:09:51;31.83;;;19.83;;
22268;SDS011;11303;50.772;19.670;2023-05-10T04:11:52;14.45;;;7.47;;
22268;SDS011;11303;50.772;19.670;2023-05-10T04:13:54;15.13;;;6.22;;
22268;SDS011;11303;50.772;19.670;2023-05-10T04:15:55;16.45;;;8.68;;
22268;SDS011;11303;50.772;19.670;2023-05-10T04:17:57;14.32;;;7.03;;
22268;SDS011;11303;50.772;19.670;2023-05-10T04:19:58;16.52;;;7.68;;
22268;SDS011;11303;50.772;19.670;2023-05-10T04:22:01;15.98;;;7.25;;
22268;SDS011;11303;50.772;19.670;2023-05-10T04:24:03;18.58;;;7.10;;
22268;SDS011;11303;50.772;19.670;2023-05-10T04:26:05;12.85;;;6.55;;
22268;SDS011;11303;50.772;19.670;2023-05-10T04:28:06;13.35;;;6.30;;
22268;SDS011;11303;50.772;19.670;2023-05-10T04:30:08;14.65;;;7.07;;
22268;SDS011;11303;50.772;19.670;2023-05-10T04:32:09;11.90;;;7.28;;
22268;SDS011;11303;50.772;19.670;2023-05-10T04:34:11;16.63;;;7.68;;
22268;SDS011;11303;50.772;19.670;2023-05-10T04:36:12;12.45;;;7.72;;
22268;SDS011;11303;50.772;19.670;2023-05-10T04:38:14;16.67;;;7.63;;
22268;SDS011;11303;50.772;19.670;2023-05-10T04:40:15;11.27;;;6.55;;
22268;SDS011;11303;50.772;19.670;2023-05-10T04:42:17;15.95;;;7.70;;
22268;SDS011;11303;50.772;19.670;2023-05-10T04:44:19;13.82;;;7.80;;
22268;SDS011;11303;50.772;19.670;2023-05-10T04:46:20;15.00;;;7.95;;
22268;SDS011;11303;50.772;19.670;2023-05-10T04:48:22;12.30;;;7.32;;
22268;SDS011;11303;50.772;19.670;2023-05-10T04:50:23;14.60;;;8.93;;
22268;SDS011;11303;50.772;19.670;2023-05-10T04:52:25;15.32;;;8.30;;
22268;SDS011;11303;50.772;19.670;2023-05-10T04:54:27;17.60;;;8.63;;
22268;SDS011;11303;50.772;19.670;2023-05-10T04:56:28;13.73;;;8.05;;
22268;SDS011;11303;50.772;19.670;2023-05-10T04:58:30;10.55;;;6.25;;
22268;SDS011;11303;50.772;19.670;2023-05-10T05:00:32;9.40;;;5.30;;
22268;SDS011;11303;50.772;19.670;2023-05-10T05:02:34;10.77;;;6.22;;
22268;SDS011;11303;50.772;19.670;2023-05-10T05:04:35;16.55;;;6.28;;
22268;SDS011;11303;50.772;19.670;2023-05-10T05:06:37;12.80;;;7.55;;
22268;SDS011;11303;50.772;19.670;2023-05-10T05:08:38;11.93;;;6.45;;
22268;SDS011;11303;50.772;19.670;2023-05-10T05:10:39;16.70;;;6.78;;
22268;SDS011;11303;50.772;19.670;2023-05-10T05:12:41;14.02;;;7.38;;
22268;SDS011;11303;50.772;19.670;2023-05-10T05:14:43;13.35;;;6.57;;
22268;SDS011;11303;50.772;19.670;2023-05-10T05:16:44;21.48;;;8.95;;
22268;SDS011;11303;50.772;19.670;2023-05-10T05:18:45;19.35;;;9.55;;
22268;SDS011;11303;50.772;19.670;2023-05-10T05:20:47;13.35;;;6.32;;
22268;SDS011;11303;50.772;19.670;2023-05-10T05:22:48;11.77;;;6.43;;
22268;SDS011;11303;50.772;19.670;2023-05-10T05:24:50;13.30;;;5.93;;
22268;SDS011;11303;50.772;19.670;2023-05-10T05:26:51;10.02;;;5.82;;
22268;SDS011;11303;50.772;19.670;2023-05-10T05:28:53;7.35;;;4.07;;
22268;SDS011;11303;50.772;19.670;2023-05-10T05:30:55;15.75;;;6.55;;
22268;SDS011;11303;50.772;19.670;2023-05-10T05:32:57;8.38;;;4.47;;
22268;SDS011;11303;50.772;19.670;2023-05-10T05:34:59;11.15;;;5.30;;
22268;SDS011;11303;50.772;19.670;2023-05-10T05:37:00;8.63;;;4.43;;
22268;SDS011;11303;50.772;19.670;2023-05-10T05:39:01;8.35;;;5.35;;
22268;SDS011;11303;50.772;19.670;2023-05-10T05:41:03;8.50;;;5.30;;
22268;SDS011;11303;50.772;19.670;2023-05-10T05:43:04;9.57;;;6.53;;
22268;SDS011;11303;50.772;19.670;2023-05-10T05:45:06;6.78;;;4.25;;
22268;SDS011;11303;50.772;19.670;2023-05-10T05:47:08;7.80;;;4.20;;
22268;SDS011;11303;50.772;19.670;2023-05-10T05:49:09;7.32;;;4.47;;
22268;SDS011;11303;50.772;19.670;2023-05-10T05:51:11;7.80;;;5.00;;
22268;SDS011;11303;50.772;19.670;2023-05-10T05:53:12;5.75;;;3.33;;
22268;SDS011;11303;50.772;19.670;2023-05-10T05:55:14;7.15;;;4.00;;
22268;SDS011;11303;50.772;19.670;2023-05-10T05:57:15;7.43;;;4.25;;
22268;SDS011;11303;50.772;19.670;2023-05-10T05:59:17;14.07;;;8.60;;
22268;SDS011;11303;50.772;19.670;2023-05-10T06:01:18;7.22;;;4.10;;
22268;SDS011;11303;50.772;19.670;2023-05-10T06:03:20;9.80;;;4.38;;
22268;SDS011;11303;50.772;19.670;2023-05-10T06:05:21;17.80;;;8.20;;
22268;SDS011;11303;50.772;19.670;2023-05-10T06:07:23;9.75;;;4.20;;
22268;SDS011;11303;50.772;19.670;2023-05-10T06:09:25;7.03;;;3.85;;
22268;SDS011;11303;50.772;19.670;2023-05-10T06:11:26;7.85;;;4.10;;
22268;SDS011;11303;50.772;19.670;2023-05-10T06:13:28;6.85;;;3.90;;
22268;SDS011;11303;50.772;19.670;2023-05-10T06:15:34;12.00;;;5.55;;
22268;SDS011;11303;50.772;19.670;2023-05-10T06:17:35;8.50;;;4.30;;
22268;SDS011;11303;50.772;19.670;2023-05-10T06:19:37;9.35;;;4.10;;
22268;SDS011;11303;50.772;19.670;2023-05-10T06:21:38;7.35;;;4.25;;
22268;SDS011;11303;50.772;19.670;2023-05-10T06:23:40;10.07;;;5.10;;
22268;SDS011;11303;50.772;19.670;2023-05-10T06:25:41;10.35;;;4.70;;
22268;SDS011;11303;50.772;19.670;2023-05-10T06:27:43;5.40;;;3.95;;
22268;SDS011;11303;50.772;19.670;2023-05-10T06:29:48;7.80;;;3.97;;
22268;SDS011;11303;50.772;19.670;2023-05-10T06:31:54;8.77;;;3.83;;
22268;SDS011;11303;50.772;19.670;2023-05-10T06:33:56;5.47;;;3.42;;
22268;SDS011;11303;50.772;19.670;2023-05-10T06:35:57;6.63;;;4.40;;
22268;SDS011;11303;50.772;19.670;2023-05-10T06:37:59;7.40;;;4.53;;
22268;SDS011;11303;50.772;19.670;2023-05-10T06:40:00;6.43;;;3.30;;
22268;SDS011;11303;50.772;19.670;2023-05-10T06:42:03;15.88;;;5.53;;
22268;SDS011;11303;50.772;19.670;2023-05-10T06:44:05;9.55;;;4.18;;
22268;SDS011;11303;50.772;19.670;2023-05-10T06:46:07;7.60;;;4.15;;
22268;SDS011;11303;50.772;19.670;2023-05-10T06:48:08;7.53;;;4.13;;
22268;SDS011;11303;50.772;19.670;2023-05-10T06:50:10;7.75;;;4.15;;
22268;SDS011;11303;50.772;19.670;2023-05-10T06:52:12;6.53;;;3.17;;
22268;SDS011;11303;50.772;19.670;2023-05-10T06:54:14;6.43;;;4.30;;
22268;SDS011;11303;50.772;19.670;2023-05-10T06:56:15;9.85;;;4.28;;
22268;SDS011;11303;50.772;19.670;2023-05-10T06:58:17;7.53;;;4.10;;
22268;SDS011;11303;50.772;19.670;2023-05-10T07:00:18;6.70;;;4.25;;
22268;SDS011;11303;50.772;19.670;2023-05-10T07:02:21;6.65;;;4.45;;
22268;SDS011;11303;50.772;19.670;2023-05-10T07:04:22;6.28;;;3.80;;
22268;SDS011;11303;50.772;19.670;2023-05-10T07:06:24;10.60;;;4.03;;
22268;SDS011;11303;50.772;19.670;2023-05-10T07:08:34;8.43;;;4.38;;
22268;SDS011;11303;50.772;19.670;2023-05-10T07:10:35;6.68;;;4.05;;
22268;SDS011;11303;50.772;19.670;2023-05-10T07:12:37;5.35;;;3.42;;
22268;SDS011;11303;50.772;19.670;2023-05-10T07:14:39;10.68;;;3.97;;
22268;SDS011;11303;50.772;19.670;2023-05-10T07:16:41;8.20;;;3.70;;
22268;SDS011;11303;50.772;19.670;2023-05-10T07:18:42;8.90;;;3.75;;
22268;SDS011;11303;50.772;19.670;2023-05-10T07:20:44;6.88;;;3.63;;
22268;SDS011;11303;50.772;19.670;2023-05-10T07:22:45;6.63;;;3.70;;
22268;SDS011;11303;50.772;19.670;2023-05-10T07:24:47;5.07;;;3.80;;
22268;SDS011;11303;50.772;19.670;2023-05-10T07:26:48;7.93;;;4.03;;
22268;SDS011;11303;50.772;19.670;2023-05-10T07:28:50;5.05;;;3.10;;
22268;SDS011;11303;50.772;19.670;2023-05-10T07:30:51;5.93;;;3.85;;
22268;SDS011;11303;50.772;19.670;2023-05-10T07:32:52;4.68;;;3.70;;
22268;SDS011;11303;50.772;19.670;2023-05-10T07:34:54;6.68;;;4.18;;
22268;SDS011;11303;50.772;19.670;2023-05-10T07:36:57;5.47;;;3.70;;
22268;SDS011;11303;50.772;19.670;2023-05-10T07:38:59;7.80;;;3.75;;
22268;SDS011;11303;50.772;19.670;2023-05-10T07:41:00;7.93;;;3.53;;
22268;SDS011;11303;50.772;19.670;2023-05-10T07:43:02;6.43;;;4.25;;
22268;SDS011;11303;50.772;19.670;2023-05-10T07:45:03;7.72;;;4.18;;
22268;SDS011;11303;50.772;19.670;2023-05-10T07:47:05;4.93;;;3.42;;
22268;SDS011;11303;50.772;19.670;2023-05-10T07:49:06;6.95;;;3.50;;
22268;SDS011;11303;50.772;19.670;2023-05-10T07:51:08;6.43;;;4.07;;
22268;SDS011;11303;50.772;19.670;2023-05-10T07:53:10;7.15;;;3.83;;
22268;SDS011;11303;50.772;19.670;2023-05-10T07:55:12;9.77;;;3.92;;
22268;SDS011;11303;50.772;19.670;2023-05-10T07:57:13;6.65;;;3.53;;
22268;SDS011;11303;50.772;19.670;2023-05-10T07:59:16;6.18;;;3.78;;
22268;SDS011;11303;50.772;19.670;2023-05-10T08:01:18;11.90;;;4.00;;
22268;SDS011;11303;50.772;19.670;2023-05-10T08:03:19;6.90;;;3.25;;
22268;SDS011;11303;50.772;19.670;2023-05-10T08:05:21;7.18;;;3.33;;
22268;SDS011;11303;50.772;19.670;2023-05-10T08:07:23;7.65;;;3.95;;
22268;SDS011;11303;50.772;19.670;2023-05-10T08:09:25;4.85;;;3.78;;
22268;SDS011;11303;50.772;19.670;2023-05-10T08:11:26;7.25;;;3.38;;
22268;SDS011;11303;50.772;19.670;2023-05-10T08:13:32;6.72;;;3.50;;
22268;SDS011;11303;50.772;19.670;2023-05-10T08:15:33;4.85;;;2.95;;
22268;SDS011;11303;50.772;19.670;2023-05-10T08:17:35;4.95;;;3.70;;
22268;SDS011;11303;50.772;19.670;2023-05-10T08:19:36;7.45;;;4.28;;
22268;SDS011;11303;50.772;19.670;2023-05-10T08:21:37;6.32;;;3.90;;
22268;SDS011;11303;50.772;19.670;2023-05-10T08:23:39;6.45;;;3.22;;
22268;SDS011;11303;50.772;19.670;2023-05-10T08:25:40;5.43;;;3.65;;
22268;SDS011;11303;50.772;19.670;2023-05-10T08:27:42;5.82;;;3.38;;
22268;SDS011;11303;50.772;19.670;2023-05-10T08:29:43;6.60;;;3.70;;
22268;SDS011;11303;50.772;19.670;2023-05-10T08:31:50;4.85;;;3.47;;
22268;SDS011;11303;50.772;19.670;2023-05-10T08:33:52;5.00;;;3.55;;
22268;SDS011;11303;50.772;19.670;2023-05-10T08:35:53;7.15;;;4.00;;
22268;SDS011;11303;50.772;19.670;2023-05-10T08:37:55;5.53;;;3.63;;
22268;SDS011;11303;50.772;19.670;2023-05-10T08:39:57;5.88;;;3.20;;
22268;SDS011;11303;50.772;19.670;2023-05-10T08:41:59;5.53;;;3.85;;
22268;SDS011;11303;50.772;19.670;2023-05-10T08:44:02;11.85;;;3.38;;
22268;SDS011;11303;50.772;19.670;2023-05-10T08:46:05;5.45;;;2.90;;
22268;SDS011;11303;50.772;19.670;2023-05-10T08:48:09;5.53;;;3.67;;
22268;SDS011;11303;50.772;19.670;2023-05-10T08:50:11;4.80;;;3.30;;
22268;SDS011;11303;50.772;19.670;2023-05-10T08:52:12;4.65;;;3.20;;
22268;SDS011;11303;50.772;19.670;2023-05-10T08:54:15;5.55;;;3.47;;
22268;SDS011;11303;50.772;19.670;2023-05-10T08:56:17;6.18;;;3.15;;
22268;SDS011;11303;50.772;19.670;2023-05-10T08:58:19;4.50;;;3.30;;
22268;SDS011;11303;50.772;19.670;2023-05-10T09:00:21;8.35;;;3.30;;
22268;SDS011;11303;50.772;19.670;2023-05-10T09:02:24;6.20;;;2.97;;
22268;SDS011;11303;50.772;19.670;2023-05-10T09:04:26;4.95;;;3.30;;
22268;SDS011;11303;50.772;19.670;2023-05-10T09:06:28;7.07;;;3.50;;
22268;SDS011;11303;50.772;19.670;2023-05-10T09:08:30;6.65;;;3.22;;
22268;SDS011;11303;50.772;19.670;2023-05-10T09:10:32;3.60;;;3.30;;
22268;SDS011;11303;50.772;19.670;2023-05-10T09:12:33;3.75;;;2.90;;
22268;SDS011;11303;50.772;19.670;2023-05-10T09:14:35;5.63;;;3.03;;
22268;SDS011;11303;50.772;19.670;2023-05-10T09:16:37;5.05;;;2.70;;
22268;SDS011;11303;50.772;19.670;2023-05-10T09:18:38;4.45;;;2.90;;
22268;SDS011;11303;50.772;19.670;2023-05-10T09:20:40;5.95;;;2.70;;
22268;SDS011;11303;50.772;19.670;2023-05-10T09:22:42;5.88;;;3.58;;
22268;SDS011;11303;50.772;19.670;2023-05-10T09:24:43;3.88;;;2.67;;
22268;SDS011;11303;50.772;19.670;2023-05-10T09:26:46;5.13;;;3.17;;
22268;SDS011;11303;50.772;19.670;2023-05-10T09:28:50;15.15;;;5.05;;
22268;SDS011;11303;50.772;19.670;2023-05-10T09:30:52;4.60;;;2.53;;
22268;SDS011;11303;50.772;19.670;2023-05-10T09:32:55;7.40;;;3.25;;
22268;SDS011;11303;50.772;19.670;2023-05-10T09:34:56;5.25;;;2.88;;
22268;SDS011;11303;50.772;19.670;2023-05-10T09:37:00;6.50;;;1.98;;
22268;SDS011;11303;50.772;19.670;2023-05-10T09:39:07;9.73;;;4.22;;
22268;SDS011;11303;50.772;19.670;2023-05-10T09:41:15;3.45;;;2.42;;
22268;SDS011;11303;50.772;19.670;2023-05-10T09:43:16;8.88;;;4.22;;
22268;SDS011;11303;50.772;19.670;2023-05-10T09:45:17;8.73;;;4.15;;
22268;SDS011;11303;50.772;19.670;2023-05-10T09:47:19;7.72;;;3.67;;
22268;SDS011;11303;50.772;19.670;2023-05-10T09:49:21;10.23;;;4.13;;
22268;SDS011;11303;50.772;19.670;2023-05-10T09:51:24;8.85;;;3.47;;
22268;SDS011;11303;50.772;19.670;2023-05-10T09:53:25;5.45;;;2.92;;
22268;SDS011;11303;50.772;19.670;2023-05-10T09:57:37;3.22;;;2.40;;
22268;SDS011;11303;50.772;19.670;2023-05-10T09:59:42;6.07;;;2.80;;
22268;SDS011;11303;50.772;19.670;2023-05-10T10:01:48;3.90;;;2.78;;
22268;SDS011;11303;50.772;19.670;2023-05-10T10:03:50;5.35;;;3.28;;
22268;SDS011;11303;50.772;19.670;2023-05-10T10:05:51;10.80;;;2.80;;
22268;SDS011;11303;50.772;19.670;2023-05-10T10:07:55;5.55;;;2.72;;
22268;SDS011;11303;50.772;19.670;2023-05-10T10:09:56;5.68;;;2.20;;
22268;SDS011;11303;50.772;19.670;2023-05-10T10:12:02;4.57;;;2.17;;
22268;SDS011;11303;50.772;19.670;2023-05-10T10:14:04;8.13;;;3.63;;
22268;SDS011;11303;50.772;19.670;2023-05-10T10:16:05;11.35;;;4.00;;
22268;SDS011;11303;50.772;19.670;2023-05-10T10:18:07;5.45;;;2.58;;
22268;SDS011;11303;50.772;19.670;2023-05-10T10:20:09;5.15;;;2.83;;
22268;SDS011;11303;50.772;19.670;2023-05-10T10:22:12;10.00;;;3.50;;
22268;SDS011;11303;50.772;19.670;2023-05-10T10:24:14;7.43;;;3.65;;
22268;SDS011;11303;50.772;19.670;2023-05-10T10:26:15;8.43;;;3.63;;
22268;SDS011;11303;50.772;19.670;2023-05-10T10:30:27;4.78;;;2.70;;
22268;SDS011;11303;50.772;19.670;2023-05-10T10:32:35;8.20;;;3.22;;
22268;SDS011;11303;50.772;19.670;2023-05-10T10:34:39;7.13;;;2.67;;
22268;SDS011;11303;50.772;19.670;2023-05-10T10:36:47;3.10;;;2.22;;
22268;SDS011;11303;50.772;19.670;2023-05-10T10:41:10;3.03;;;1.90;;
22268;SDS011;11303;50.772;19.670;2023-05-10T10:43:25;4.80;;;2.40;;
22268;SDS011;11303;50.772;19.670;2023-05-10T10:45:27;5.93;;;3.42;;
22268;SDS011;11303;50.772;19.670;2023-05-10T10:47:28;4.68;;;2.63;;
22268;SDS011;11303;50.772;19.670;2023-05-10T10:49:33;4.18;;;2.20;;
22268;SDS011;11303;50.772;19.670;2023-05-10T10:51:37;5.70;;;2.55;;
22268;SDS011;11303;50.772;19.670;2023-05-10T10:53:39;4.68;;;2.42;;
22268;SDS011;11303;50.772;19.670;2023-05-10T10:55:51;6.32;;;2.10;;
22268;SDS011;11303;50.772;19.670;2023-05-10T10:58:03;5.22;;;2.90;;
22268;SDS011;11303;50.772;19.670;2023-05-10T11:04:42;3.92;;;2.30;;
22268;SDS011;11303;50.772;19.670;2023-05-10T11:06:47;3.40;;;2.28;;
22268;SDS011;11303;50.772;19.670;2023-05-10T11:08:49;3.42;;;2.22;;
22268;SDS011;11303;50.772;19.670;2023-05-10T11:11:14;7.32;;;3.03;;
22268;SDS011;11303;50.772;19.670;2023-05-10T11:13:13;2.97;;;2.17;;
22268;SDS011;11303;50.772;19.670;2023-05-10T11:15:15;2.85;;;2.03;;
22268;SDS011;11303;50.772;19.670;2023-05-10T11:32:09;268.63;;;70.38;;
22268;SDS011;11303;50.772;19.670;2023-05-10T11:42:16;268.15;;;73.47;;
22268;SDS011;11303;50.772;19.670;2023-05-10T11:44:18;236.88;;;66.07;;
22268;SDS011;11303;50.772;19.670;2023-05-10T11:46:20;226.88;;;62.90;;
22268;SDS011;11303;50.772;19.670;2023-05-10T11:48:23;365.20;;;102.90;;
22268;SDS011;11303;50.772;19.670;2023-05-10T11:50:25;315.42;;;93.45;;
22268;SDS011;11303;50.772;19.670;2023-05-10T11:52:34;435.75;;;129.93;;
22268;SDS011;11303;50.772;19.670;2023-05-10T12:29:16;21.63;;;3.17;;
22268;SDS011;11303;50.772;19.670;2023-05-10T12:31:18;6.10;;;3.33;;
22268;SDS011;11303;50.772;19.670;2023-05-10T12:33:20;5.90;;;2.80;;
22268;SDS011;11303;50.772;19.670;2023-05-10T12:35:22;8.30;;;3.17;;
22268;SDS011;11303;50.772;19.670;2023-05-10T12:37:27;4.15;;;2.50;;
22268;SDS011;11303;50.772;19.670;2023-05-10T12:39:39;5.60;;;3.38;;
22268;SDS011;11303;50.772;19.670;2023-05-10T12:41:42;4.93;;;2.33;;
22268;SDS011;11303;50.772;19.670;2023-05-10T12:43:44;5.72;;;3.10;;
22268;SDS011;11303;50.772;19.670;2023-05-10T12:45:46;10.88;;;3.92;;
22268;SDS011;11303;50.772;19.670;2023-05-10T12:47:49;6.68;;;3.08;;
22268;SDS011;11303;50.772;19.670;2023-05-10T12:49:51;6.53;;;2.95;;
22268;SDS011;11303;50.772;19.670;2023-05-10T12:51:53;8.68;;;2.88;;
22268;SDS011;11303;50.772;19.670;2023-05-10T12:53:55;6.88;;;2.97;;
22268;SDS011;11303;50.772;19.670;2023-05-10T12:55:56;5.97;;;2.90;;
22268;SDS011;11303;50.772;19.670;2023-05-10T12:57:58;6.65;;;2.50;;
22268;SDS011;11303;50.772;19.670;2023-05-10T13:00:00;6.18;;;2.70;;
22268;SDS011;11303;50.772;19.670;2023-05-10T13:02:02;12.45;;;2.60;;
22268;SDS011;11303;50.772;19.670;2023-05-10T13:04:03;3.70;;;2.50;;
22268;SDS011;11303;50.772;19.670;2023-05-10T13:06:05;5.07;;;2.17;;
22268;SDS011;11303;50.772;19.670;2023-05-10T13:08:07;5.50;;;2.65;;
22268;SDS011;11303;50.772;19.670;2023-05-10T13:10:09;5.05;;;2.42;;
22268;SDS011;11303;50.772;19.670;2023-05-10T13:12:11;3.58;;;2.47;;
22268;SDS011;11303;50.772;19.670;2023-05-10T13:14:13;6.68;;;3.00;;
22268;SDS011;11303;50.772;19.670;2023-05-10T13:16:15;6.82;;;3.15;;
22268;SDS011;11303;50.772;19.670;2023-05-10T13:18:17;3.30;;;2.00;;
22268;SDS011;11303;50.772;19.670;2023-05-10T13:20:19;4.13;;;2.08;;